sensor_id;sensor_type;location;lat;lon;timestamp;P1;durP1;ratioP1;P2;durP2;ratioP2
966;SDS011;56108;48.730;9.304;2022-11-02T00:00:54;4.00;;;3.60;;
966;SDS011;56108;48.730;9.304;2022-11-02T00:03:06;8.07;;;4.43;;
966;SDS011;56108;48.730;9.304;2022-11-02T00:05:14;5.05;;;3.72;;
966;SDS011;56108;48.730;9.304;2022-11-02T00:07:28;8.18;;;4.50;;
966;SDS011;56108;48.730;9.304;2022-11-02T00:09:36;5.85;;;3.60;;
966;SDS011;56108;48.730;9.304;2022-11-02T00:11:45;3.85;;;3.50;;
966;SDS011;56108;48.730;9.304;2022-11-02T00:13:54;4.53;;;3.80;;
966;SDS011;56108;48.730;9.304;2022-11-02T00:16:04;3.90;;;3.60;;
966;SDS011;56108;48.730;9.304;2022-11-02T00:18:21;6.80;;;3.63;;
966;SDS011;56108;48.730;9.304;2022-11-02T00:20:29;5.50;;;4.10;;
966;SDS011;56108;48.730;9.304;2022-11-02T00:22:38;7.70;;;4.28;;
966;SDS011;56108;48.730;9.304;2022-11-02T00:24:48;6.65;;;4.03;;
966;SDS011;56108;48.730;9.304;2022-11-02T00:26:56;4.75;;;4.15;;
966;SDS011;56108;48.730;9.304;2022-11-02T00:29:07;10.32;;;4.05;;
966;SDS011;56108;48.730;9.304;2022-11-02T00:31:15;5.55;;;3.60;;
966;SDS011;56108;48.730;9.304;2022-11-02T00:33:26;3.70;;;3.28;;
966;SDS011;56108;48.730;9.304;2022-11-02T00:35:36;5.80;;;3.97;;
966;SDS011;56108;48.730;9.304;2022-11-02T00:37:49;5.47;;;3.65;;
966;SDS011;56108;48.730;9.304;2022-11-02T00:39:57;5.95;;;4.45;;
966;SDS011;56108;48.730;9.304;2022-11-02T00:42:05;5.40;;;3.55;;
966;SDS011;56108;48.730;9.304;2022-11-02T00:44:14;5.28;;;3.75;;
966;SDS011;56108;48.730;9.304;2022-11-02T00:46:22;5.50;;;3.70;;
966;SDS011;56108;48.730;9.304;2022-11-02T00:48:33;3.75;;;3.45;;
966;SDS011;56108;48.730;9.304;2022-11-02T00:50:41;3.85;;;3.28;;
966;SDS011;56108;48.730;9.304;2022-11-02T00:52:50;4.28;;;3.30;;
966;SDS011;56108;48.730;9.304;2022-11-02T00:55:00;5.65;;;3.53;;
966;SDS011;56108;48.730;9.304;2022-11-02T00:57:08;4.18;;;3.70;;
966;SDS011;56108;48.730;9.304;2022-11-02T00:59:16;5.43;;;3.00;;
966;SDS011;56108;48.730;9.304;2022-11-02T01:01:24;4.63;;;3.60;;
966;SDS011;56108;48.730;9.304;2022-11-02T01:03:36;6.05;;;4.55;;
966;SDS011;56108;48.730;9.304;2022-11-02T01:05:44;5.43;;;4.50;;
966;SDS011;56108;48.730;9.304;2022-11-02T01:07:52;7.05;;;5.25;;
966;SDS011;56108;48.730;9.304;2022-11-02T01:10:01;7.03;;;5.53;;
966;SDS011;56108;48.730;9.304;2022-11-02T01:12:09;5.88;;;5.28;;
966;SDS011;56108;48.730;9.304;2022-11-02T01:14:19;6.63;;;5.88;;
966;SDS011;56108;48.730;9.304;2022-11-02T01:16:27;7.35;;;5.50;;
966;SDS011;56108;48.730;9.304;2022-11-02T01:18:39;7.30;;;5.28;;
966;SDS011;56108;48.730;9.304;2022-11-02T01:20:54;6.50;;;5.88;;
966;SDS011;56108;48.730;9.304;2022-11-02T01:23:02;10.07;;;8.05;;
966;SDS011;56108;48.730;9.304;2022-11-02T01:25:12;13.45;;;8.77;;
966;SDS011;56108;48.730;9.304;2022-11-02T01:27:20;9.90;;;8.90;;
966;SDS011;56108;48.730;9.304;2022-11-02T01:29:28;11.18;;;8.00;;
966;SDS011;56108;48.730;9.304;2022-11-02T01:31:36;11.15;;;8.35;;
966;SDS011;56108;48.730;9.304;2022-11-02T01:33:47;9.07;;;8.18;;
966;SDS011;56108;48.730;9.304;2022-11-02T01:35:55;10.57;;;8.82;;
966;SDS011;56108;48.730;9.304;2022-11-02T01:38:03;10.32;;;8.88;;
966;SDS011;56108;48.730;9.304;2022-11-02T01:40:12;10.18;;;9.05;;
966;SDS011;56108;48.730;9.304;2022-11-02T01:42:21;8.70;;;7.90;;
966;SDS011;56108;48.730;9.304;2022-11-02T01:44:33;9.45;;;8.38;;
966;SDS011;56108;48.730;9.304;2022-11-02T01:46:46;11.80;;;8.73;;
966;SDS011;56108;48.730;9.304;2022-11-02T01:49:10;9.15;;;7.75;;
966;SDS011;56108;48.730;9.304;2022-11-02T01:51:21;8.10;;;7.30;;
966;SDS011;56108;48.730;9.304;2022-11-02T01:53:33;9.15;;;6.95;;
966;SDS011;56108;48.730;9.304;2022-11-02T01:55:47;8.15;;;6.80;;
966;SDS011;56108;48.730;9.304;2022-11-02T01:58:00;7.78;;;6.97;;
966;SDS011;56108;48.730;9.304;2022-11-02T02:00:14;7.35;;;6.53;;
966;SDS011;56108;48.730;9.304;2022-11-02T02:02:24;7.85;;;5.90;;
966;SDS011;56108;48.730;9.304;2022-11-02T02:04:38;6.78;;;6.07;;
966;SDS011;56108;48.730;9.304;2022-11-02T02:06:48;7.65;;;6.03;;
966;SDS011;56108;48.730;9.304;2022-11-02T02:08:59;6.30;;;5.03;;
966;SDS011;56108;48.730;9.304;2022-11-02T02:11:22;7.30;;;5.50;;
966;SDS011;56108;48.730;9.304;2022-11-02T02:13:32;6.10;;;5.22;;
966;SDS011;56108;48.730;9.304;2022-11-02T02:15:41;7.95;;;5.65;;
966;SDS011;56108;48.730;9.304;2022-11-02T02:17:57;7.13;;;5.70;;
966;SDS011;56108;48.730;9.304;2022-11-02T02:20:18;6.18;;;5.38;;
966;SDS011;56108;48.730;9.304;2022-11-02T02:25:23;8.73;;;5.80;;
966;SDS011;56108;48.730;9.304;2022-11-02T02:27:50;6.60;;;5.50;;
966;SDS011;56108;48.730;9.304;2022-11-02T02:30:19;7.05;;;6.00;;
966;SDS011;56108;48.730;9.304;2022-11-02T02:32:51;6.03;;;5.35;;
966;SDS011;56108;48.730;9.304;2022-11-02T02:35:14;7.68;;;6.72;;
966;SDS011;56108;48.730;9.304;2022-11-02T02:37:30;7.63;;;6.03;;
966;SDS011;56108;48.730;9.304;2022-11-02T02:39:47;10.68;;;6.90;;
966;SDS011;56108;48.730;9.304;2022-11-02T02:42:05;7.80;;;6.97;;
966;SDS011;56108;48.730;9.304;2022-11-02T02:44:21;7.78;;;6.70;;
966;SDS011;56108;48.730;9.304;2022-11-02T02:46:35;8.25;;;7.45;;
966;SDS011;56108;48.730;9.304;2022-11-02T02:48:46;9.32;;;7.78;;
966;SDS011;56108;48.730;9.304;2022-11-02T02:51:03;7.80;;;7.10;;
966;SDS011;56108;48.730;9.304;2022-11-02T02:53:16;8.00;;;7.20;;
966;SDS011;56108;48.730;9.304;2022-11-02T02:55:30;8.55;;;7.70;;
966;SDS011;56108;48.730;9.304;2022-11-02T02:57:41;8.30;;;7.60;;
966;SDS011;56108;48.730;9.304;2022-11-02T02:59:55;8.63;;;7.53;;
966;SDS011;56108;48.730;9.304;2022-11-02T03:02:04;8.00;;;7.18;;
966;SDS011;56108;48.730;9.304;2022-11-02T03:04:16;8.70;;;7.80;;
966;SDS011;56108;48.730;9.304;2022-11-02T03:06:25;8.88;;;6.72;;
966;SDS011;56108;48.730;9.304;2022-11-02T03:08:42;7.43;;;6.70;;
966;SDS011;56108;48.730;9.304;2022-11-02T03:10:55;9.32;;;7.25;;
966;SDS011;56108;48.730;9.304;2022-11-02T03:13:12;13.18;;;8.88;;
966;SDS011;56108;48.730;9.304;2022-11-02T03:15:39;10.00;;;8.10;;
966;SDS011;56108;48.730;9.304;2022-11-02T03:17:54;8.50;;;7.70;;
966;SDS011;56108;48.730;9.304;2022-11-02T03:20:10;10.98;;;7.88;;
966;SDS011;56108;48.730;9.304;2022-11-02T03:22:29;9.07;;;8.27;;
966;SDS011;56108;48.730;9.304;2022-11-02T03:24:42;8.95;;;8.15;;
966;SDS011;56108;48.730;9.304;2022-11-02T03:26:59;9.23;;;8.32;;
966;SDS011;56108;48.730;9.304;2022-11-02T03:29:17;10.68;;;7.55;;
966;SDS011;56108;48.730;9.304;2022-11-02T03:31:35;8.95;;;8.05;;
966;SDS011;56108;48.730;9.304;2022-11-02T03:33:53;11.70;;;8.57;;
966;SDS011;56108;48.730;9.304;2022-11-02T03:36:06;9.73;;;8.82;;
966;SDS011;56108;48.730;9.304;2022-11-02T03:38:18;9.00;;;8.20;;
966;SDS011;56108;48.730;9.304;2022-11-02T03:40:34;9.85;;;8.77;;
966;SDS011;56108;48.730;9.304;2022-11-02T03:42:49;9.68;;;8.63;;
966;SDS011;56108;48.730;9.304;2022-11-02T03:45:01;11.75;;;7.95;;
966;SDS011;56108;48.730;9.304;2022-11-02T03:47:16;10.10;;;9.10;;
966;SDS011;56108;48.730;9.304;2022-11-02T03:49:27;9.15;;;8.25;;
966;SDS011;56108;48.730;9.304;2022-11-02T03:51:38;9.23;;;8.40;;
966;SDS011;56108;48.730;9.304;2022-11-02T03:53:53;10.48;;;8.95;;
966;SDS011;56108;48.730;9.304;2022-11-02T03:56:08;9.25;;;8.27;;
966;SDS011;56108;48.730;9.304;2022-11-02T03:58:21;10.02;;;8.98;;
966;SDS011;56108;48.730;9.304;2022-11-02T04:00:31;12.48;;;9.32;;
966;SDS011;56108;48.730;9.304;2022-11-02T04:02:48;10.75;;;8.18;;
966;SDS011;56108;48.730;9.304;2022-11-02T04:05:00;9.07;;;8.15;;
966;SDS011;56108;48.730;9.304;2022-11-02T04:07:09;11.48;;;9.70;;
966;SDS011;56108;48.730;9.304;2022-11-02T04:09:17;8.80;;;7.95;;
966;SDS011;56108;48.730;9.304;2022-11-02T04:11:26;9.07;;;8.20;;
966;SDS011;56108;48.730;9.304;2022-11-02T04:13:50;9.13;;;8.25;;
966;SDS011;56108;48.730;9.304;2022-11-02T04:16:14;9.60;;;8.75;;
966;SDS011;56108;48.730;9.304;2022-11-02T04:18:34;9.20;;;8.40;;
966;SDS011;56108;48.730;9.304;2022-11-02T04:20:55;9.82;;;8.70;;
966;SDS011;56108;48.730;9.304;2022-11-02T04:23:05;9.85;;;8.85;;
966;SDS011;56108;48.730;9.304;2022-11-02T04:25:25;12.23;;;8.68;;
966;SDS011;56108;48.730;9.304;2022-11-02T04:27:51;9.30;;;8.23;;
966;SDS011;56108;48.730;9.304;2022-11-02T04:30:06;10.23;;;9.23;;
966;SDS011;56108;48.730;9.304;2022-11-02T04:32:15;9.57;;;8.60;;
966;SDS011;56108;48.730;9.304;2022-11-02T04:34:51;10.55;;;9.35;;
966;SDS011;56108;48.730;9.304;2022-11-02T04:36:57;11.07;;;9.27;;
966;SDS011;56108;48.730;9.304;2022-11-02T04:39:26;9.35;;;8.45;;
966;SDS011;56108;48.730;9.304;2022-11-02T04:41:32;10.30;;;9.30;;
966;SDS011;56108;48.730;9.304;2022-11-02T04:44:05;9.20;;;8.30;;
966;SDS011;56108;48.730;9.304;2022-11-02T04:46:15;9.35;;;8.45;;
966;SDS011;56108;48.730;9.304;2022-11-02T04:48:26;11.32;;;9.25;;
966;SDS011;56108;48.730;9.304;2022-11-02T04:50:37;10.25;;;9.15;;
966;SDS011;56108;48.730;9.304;2022-11-02T04:52:46;9.45;;;8.55;;
966;SDS011;56108;48.730;9.304;2022-11-02T04:55:03;10.00;;;9.00;;
966;SDS011;56108;48.730;9.304;2022-11-02T04:57:12;9.85;;;8.85;;
966;SDS011;56108;48.730;9.304;2022-11-02T04:59:21;10.98;;;8.98;;
966;SDS011;56108;48.730;9.304;2022-11-02T05:01:30;11.27;;;10.10;;
966;SDS011;56108;48.730;9.304;2022-11-02T05:03:39;9.00;;;8.10;;
966;SDS011;56108;48.730;9.304;2022-11-02T05:05:51;9.50;;;8.50;;
966;SDS011;56108;48.730;9.304;2022-11-02T05:08:01;8.57;;;7.78;;
966;SDS011;56108;48.730;9.304;2022-11-02T05:10:10;10.43;;;9.40;;
966;SDS011;56108;48.730;9.304;2022-11-02T05:12:21;10.45;;;9.48;;
966;SDS011;56108;48.730;9.304;2022-11-02T05:14:33;10.88;;;9.73;;
966;SDS011;56108;48.730;9.304;2022-11-02T05:16:43;10.60;;;9.60;;
966;SDS011;56108;48.730;9.304;2022-11-02T05:18:51;10.75;;;9.57;;
966;SDS011;56108;48.730;9.304;2022-11-02T05:21:04;10.05;;;9.15;;
966;SDS011;56108;48.730;9.304;2022-11-02T05:23:12;11.25;;;10.10;;
966;SDS011;56108;48.730;9.304;2022-11-02T05:25:21;10.13;;;9.23;;
966;SDS011;56108;48.730;9.304;2022-11-02T05:27:30;11.40;;;10.18;;
966;SDS011;56108;48.730;9.304;2022-11-02T05:29:39;10.27;;;9.27;;
966;SDS011;56108;48.730;9.304;2022-11-02T05:31:48;13.80;;;11.60;;
966;SDS011;56108;48.730;9.304;2022-11-02T05:33:56;11.85;;;10.65;;
966;SDS011;56108;48.730;9.304;2022-11-02T05:36:09;13.80;;;11.50;;
966;SDS011;56108;48.730;9.304;2022-11-02T05:38:21;17.13;;;10.35;;
966;SDS011;56108;48.730;9.304;2022-11-02T05:40:30;12.35;;;10.38;;
966;SDS011;56108;48.730;9.304;2022-11-02T05:42:41;13.75;;;11.20;;
966;SDS011;56108;48.730;9.304;2022-11-02T05:44:50;12.98;;;11.13;;
966;SDS011;56108;48.730;9.304;2022-11-02T05:47:01;12.00;;;10.80;;
966;SDS011;56108;48.730;9.304;2022-11-02T05:49:10;12.38;;;10.15;;
966;SDS011;56108;48.730;9.304;2022-11-02T05:51:22;10.70;;;9.65;;
966;SDS011;56108;48.730;9.304;2022-11-02T05:53:32;15.95;;;10.38;;
966;SDS011;56108;48.730;9.304;2022-11-02T05:55:42;9.63;;;8.68;;
966;SDS011;56108;48.730;9.304;2022-11-02T05:57:51;12.35;;;10.38;;
966;SDS011;56108;48.730;9.304;2022-11-02T05:59:57;12.80;;;11.43;;
966;SDS011;56108;48.730;9.304;2022-11-02T06:02:15;12.75;;;11.45;;
966;SDS011;56108;48.730;9.304;2022-11-02T06:04:28;12.00;;;10.10;;
966;SDS011;56108;48.730;9.304;2022-11-02T06:06:39;10.13;;;9.18;;
966;SDS011;56108;48.730;9.304;2022-11-02T06:08:48;11.00;;;8.88;;
966;SDS011;56108;48.730;9.304;2022-11-02T06:10:56;9.52;;;8.63;;
966;SDS011;56108;48.730;9.304;2022-11-02T06:13:05;10.52;;;9.48;;
966;SDS011;56108;48.730;9.304;2022-11-02T06:15:13;9.82;;;7.70;;
966;SDS011;56108;48.730;9.304;2022-11-02T06:17:21;9.30;;;8.40;;
966;SDS011;56108;48.730;9.304;2022-11-02T06:19:29;8.73;;;7.88;;
966;SDS011;56108;48.730;9.304;2022-11-02T06:21:42;9.48;;;8.18;;
966;SDS011;56108;48.730;9.304;2022-11-02T06:23:52;9.43;;;8.43;;
966;SDS011;56108;48.730;9.304;2022-11-02T06:26:02;8.68;;;7.85;;
966;SDS011;56108;48.730;9.304;2022-11-02T06:28:10;8.68;;;7.50;;
966;SDS011;56108;48.730;9.304;2022-11-02T06:30:20;11.00;;;7.63;;
966;SDS011;56108;48.730;9.304;2022-11-02T06:32:29;10.15;;;8.00;;
966;SDS011;56108;48.730;9.304;2022-11-02T06:34:37;10.52;;;8.90;;
966;SDS011;56108;48.730;9.304;2022-11-02T06:36:48;10.27;;;8.90;;
966;SDS011;56108;48.730;9.304;2022-11-02T06:38:57;8.45;;;7.65;;
966;SDS011;56108;48.730;9.304;2022-11-02T06:41:06;9.02;;;8.23;;
966;SDS011;56108;48.730;9.304;2022-11-02T06:43:16;9.02;;;7.75;;
966;SDS011;56108;48.730;9.304;2022-11-02T06:45:25;9.65;;;8.75;;
966;SDS011;56108;48.730;9.304;2022-11-02T06:47:34;10.40;;;8.95;;
966;SDS011;56108;48.730;9.304;2022-11-02T06:49:45;11.02;;;9.93;;
966;SDS011;56108;48.730;9.304;2022-11-02T06:51:56;14.23;;;10.23;;
966;SDS011;56108;48.730;9.304;2022-11-02T06:54:06;12.73;;;10.25;;
966;SDS011;56108;48.730;9.304;2022-11-02T06:56:14;10.38;;;9.43;;
966;SDS011;56108;48.730;9.304;2022-11-02T06:58:23;11.15;;;10.15;;
966;SDS011;56108;48.730;9.304;2022-11-02T07:00:31;9.57;;;8.57;;
966;SDS011;56108;48.730;9.304;2022-11-02T07:02:40;9.43;;;8.23;;
966;SDS011;56108;48.730;9.304;2022-11-02T07:04:48;11.90;;;7.47;;
966;SDS011;56108;48.730;9.304;2022-11-02T07:06:58;11.07;;;5.90;;
966;SDS011;56108;48.730;9.304;2022-11-02T07:09:07;6.65;;;5.68;;
966;SDS011;56108;48.730;9.304;2022-11-02T07:11:16;7.78;;;5.90;;
966;SDS011;56108;48.730;9.304;2022-11-02T07:13:26;6.00;;;5.15;;
966;SDS011;56108;48.730;9.304;2022-11-02T07:15:34;5.80;;;4.90;;
966;SDS011;56108;48.730;9.304;2022-11-02T07:17:42;6.55;;;5.95;;
966;SDS011;56108;48.730;9.304;2022-11-02T07:19:51;8.05;;;5.53;;
966;SDS011;56108;48.730;9.304;2022-11-02T07:22:02;6.10;;;4.95;;
966;SDS011;56108;48.730;9.304;2022-11-02T07:24:10;8.48;;;5.35;;
966;SDS011;56108;48.730;9.304;2022-11-02T07:26:19;6.00;;;4.78;;
966;SDS011;56108;48.730;9.304;2022-11-02T07:28:33;5.13;;;3.30;;
966;SDS011;56108;48.730;9.304;2022-11-02T07:30:42;4.72;;;4.30;;
966;SDS011;56108;48.730;9.304;2022-11-02T07:32:51;5.43;;;3.78;;
966;SDS011;56108;48.730;9.304;2022-11-02T07:34:59;6.15;;;4.60;;
966;SDS011;56108;48.730;9.304;2022-11-02T07:37:10;4.78;;;3.03;;
966;SDS011;56108;48.730;9.304;2022-11-02T07:39:18;5.97;;;3.60;;
966;SDS011;56108;48.730;9.304;2022-11-02T07:41:28;3.75;;;3.45;;
966;SDS011;56108;48.730;9.304;2022-11-02T07:43:36;5.53;;;3.30;;
966;SDS011;56108;48.730;9.304;2022-11-02T07:46:10;5.03;;;2.92;;
966;SDS011;56108;48.730;9.304;2022-11-02T07:48:19;2.95;;;2.75;;
966;SDS011;56108;48.730;9.304;2022-11-02T07:50:27;5.30;;;2.80;;
966;SDS011;56108;48.730;9.304;2022-11-02T07:52:44;5.57;;;2.95;;
966;SDS011;56108;48.730;9.304;2022-11-02T07:54:53;2.70;;;2.50;;
966;SDS011;56108;48.730;9.304;2022-11-02T07:57:01;5.50;;;2.55;;
966;SDS011;56108;48.730;9.304;2022-11-02T07:59:10;6.50;;;3.05;;
966;SDS011;56108;48.730;9.304;2022-11-02T08:01:19;3.70;;;3.38;;
966;SDS011;56108;48.730;9.304;2022-11-02T08:03:28;4.70;;;3.40;;
966;SDS011;56108;48.730;9.304;2022-11-02T08:05:37;5.43;;;3.63;;
966;SDS011;56108;48.730;9.304;2022-11-02T08:07:57;4.90;;;2.65;;
966;SDS011;56108;48.730;9.304;2022-11-02T08:10:08;6.43;;;2.58;;
966;SDS011;56108;48.730;9.304;2022-11-02T08:12:16;5.30;;;2.85;;
966;SDS011;56108;48.730;9.304;2022-11-02T08:14:26;4.97;;;2.72;;
966;SDS011;56108;48.730;9.304;2022-11-02T08:16:34;4.20;;;2.63;;
966;SDS011;56108;48.730;9.304;2022-11-02T08:18:43;2.90;;;2.28;;
966;SDS011;56108;48.730;9.304;2022-11-02T08:20:53;3.15;;;2.55;;
966;SDS011;56108;48.730;9.304;2022-11-02T08:23:04;6.68;;;2.75;;
966;SDS011;56108;48.730;9.304;2022-11-02T08:25:14;5.10;;;2.90;;
966;SDS011;56108;48.730;9.304;2022-11-02T08:27:23;5.05;;;3.33;;
966;SDS011;56108;48.730;9.304;2022-11-02T08:29:31;2.72;;;2.50;;
966;SDS011;56108;48.730;9.304;2022-11-02T08:31:43;8.82;;;3.15;;
966;SDS011;56108;48.730;9.304;2022-11-02T08:33:51;3.28;;;2.50;;
966;SDS011;56108;48.730;9.304;2022-11-02T08:36:02;2.88;;;2.58;;
966;SDS011;56108;48.730;9.304;2022-11-02T08:38:14;3.88;;;2.83;;
966;SDS011;56108;48.730;9.304;2022-11-02T08:40:26;4.13;;;3.00;;
966;SDS011;56108;48.730;9.304;2022-11-02T08:42:35;3.50;;;2.28;;
966;SDS011;56108;48.730;9.304;2022-11-02T08:44:44;3.95;;;2.30;;
966;SDS011;56108;48.730;9.304;2022-11-02T08:46:53;2.88;;;2.65;;
966;SDS011;56108;48.730;9.304;2022-11-02T08:49:02;3.72;;;2.35;;
966;SDS011;56108;48.730;9.304;2022-11-02T08:51:10;4.15;;;2.13;;
966;SDS011;56108;48.730;9.304;2022-11-02T08:53:21;4.68;;;2.63;;
966;SDS011;56108;48.730;9.304;2022-11-02T08:55:30;2.83;;;2.55;;
966;SDS011;56108;48.730;9.304;2022-11-02T08:57:44;5.03;;;2.30;;
966;SDS011;56108;48.730;9.304;2022-11-02T08:59:53;4.70;;;3.03;;
966;SDS011;56108;48.730;9.304;2022-11-02T09:02:03;4.50;;;2.67;;
966;SDS011;56108;48.730;9.304;2022-11-02T09:04:11;4.63;;;3.25;;
966;SDS011;56108;48.730;9.304;2022-11-02T09:06:19;3.15;;;2.38;;
966;SDS011;56108;48.730;9.304;2022-11-02T09:08:30;4.75;;;2.47;;
966;SDS011;56108;48.730;9.304;2022-11-02T09:10:39;4.72;;;2.30;;
966;SDS011;56108;48.730;9.304;2022-11-02T09:12:47;4.82;;;2.70;;
966;SDS011;56108;48.730;9.304;2022-11-02T09:14:56;8.02;;;2.90;;
966;SDS011;56108;48.730;9.304;2022-11-02T09:17:04;2.60;;;2.00;;
966;SDS011;56108;48.730;9.304;2022-11-02T09:19:12;2.95;;;2.22;;
966;SDS011;56108;48.730;9.304;2022-11-02T09:21:20;2.95;;;2.08;;
966;SDS011;56108;48.730;9.304;2022-11-02T09:23:31;2.83;;;1.95;;
966;SDS011;56108;48.730;9.304;2022-11-02T09:25:42;4.13;;;1.90;;
966;SDS011;56108;48.730;9.304;2022-11-02T09:27:52;3.67;;;2.08;;
966;SDS011;56108;48.730;9.304;2022-11-02T09:30:01;3.55;;;2.05;;
966;SDS011;56108;48.730;9.304;2022-11-02T09:32:10;4.72;;;2.30;;
966;SDS011;56108;48.730;9.304;2022-11-02T09:34:18;4.60;;;4.20;;
966;SDS011;56108;48.730;9.304;2022-11-02T09:36:26;6.53;;;4.72;;
966;SDS011;56108;48.730;9.304;2022-11-02T09:38:37;4.00;;;3.60;;
966;SDS011;56108;48.730;9.304;2022-11-02T09:40:48;6.22;;;4.93;;
966;SDS011;56108;48.730;9.304;2022-11-02T09:43:11;3.22;;;2.92;;
966;SDS011;56108;48.730;9.304;2022-11-02T09:45:24;3.28;;;2.97;;
966;SDS011;56108;48.730;9.304;2022-11-02T09:47:35;4.93;;;3.45;;
966;SDS011;56108;48.730;9.304;2022-11-02T09:50:11;3.33;;;3.00;;
966;SDS011;56108;48.730;9.304;2022-11-02T09:52:25;3.80;;;2.60;;
966;SDS011;56108;48.730;9.304;2022-11-02T09:54:42;2.25;;;1.85;;
966;SDS011;56108;48.730;9.304;2022-11-02T09:56:54;5.00;;;1.80;;
966;SDS011;56108;48.730;9.304;2022-11-02T09:59:10;3.10;;;1.67;;
966;SDS011;56108;48.730;9.304;2022-11-02T10:01:23;4.80;;;2.60;;
966;SDS011;56108;48.730;9.304;2022-11-02T10:03:42;5.47;;;2.72;;
966;SDS011;56108;48.730;9.304;2022-11-02T10:06:02;5.30;;;3.25;;
966;SDS011;56108;48.730;9.304;2022-11-02T10:08:25;2.72;;;2.53;;
966;SDS011;56108;48.730;9.304;2022-11-02T10:10:46;4.85;;;2.08;;
966;SDS011;56108;48.730;9.304;2022-11-02T10:13:13;4.28;;;1.88;;
966;SDS011;56108;48.730;9.304;2022-11-02T10:15:34;2.40;;;1.55;;
966;SDS011;56108;48.730;9.304;2022-11-02T10:17:45;3.70;;;2.05;;
966;SDS011;56108;48.730;9.304;2022-11-02T10:19:58;3.63;;;1.90;;
966;SDS011;56108;48.730;9.304;2022-11-02T10:22:11;3.55;;;1.80;;
966;SDS011;56108;48.730;9.304;2022-11-02T10:24:26;2.65;;;1.60;;
966;SDS011;56108;48.730;9.304;2022-11-02T10:26:42;3.10;;;1.80;;
966;SDS011;56108;48.730;9.304;2022-11-02T10:28:52;2.40;;;1.95;;
966;SDS011;56108;48.730;9.304;2022-11-02T10:31:07;5.18;;;1.50;;
966;SDS011;56108;48.730;9.304;2022-11-02T10:33:26;3.90;;;1.70;;
966;SDS011;56108;48.730;9.304;2022-11-02T10:35:36;3.33;;;1.55;;
966;SDS011;56108;48.730;9.304;2022-11-02T10:38:15;4.38;;;1.70;;
966;SDS011;56108;48.730;9.304;2022-11-02T10:40:40;3.65;;;1.80;;
966;SDS011;56108;48.730;9.304;2022-11-02T10:43:02;4.13;;;1.83;;
966;SDS011;56108;48.730;9.304;2022-11-02T10:45:31;2.88;;;1.65;;
966;SDS011;56108;48.730;9.304;2022-11-02T10:47:59;9.02;;;2.40;;
966;SDS011;56108;48.730;9.304;2022-11-02T10:50:22;1.70;;;1.35;;
966;SDS011;56108;48.730;9.304;2022-11-02T10:52:43;2.97;;;1.42;;
966;SDS011;56108;48.730;9.304;2022-11-02T10:54:52;1.75;;;1.38;;
966;SDS011;56108;48.730;9.304;2022-11-02T10:57:03;2.35;;;1.35;;
966;SDS011;56108;48.730;9.304;2022-11-02T10:59:21;2.78;;;1.38;;
966;SDS011;56108;48.730;9.304;2022-11-02T11:01:29;2.22;;;1.50;;
966;SDS011;56108;48.730;9.304;2022-11-02T11:06:10;3.00;;;1.73;;
966;SDS011;56108;48.730;9.304;2022-11-02T11:08:28;1.88;;;1.45;;
966;SDS011;56108;48.730;9.304;2022-11-02T11:11:09;1.45;;;1.35;;
966;SDS011;56108;48.730;9.304;2022-11-02T11:13:24;3.45;;;1.65;;
966;SDS011;56108;48.730;9.304;2022-11-02T11:15:58;1.95;;;1.50;;
966;SDS011;56108;48.730;9.304;2022-11-02T11:18:10;3.33;;;2.10;;
966;SDS011;56108;48.730;9.304;2022-11-02T11:20:40;2.85;;;1.58;;
966;SDS011;56108;48.730;9.304;2022-11-02T11:22:50;2.78;;;1.52;;
966;SDS011;56108;48.730;9.304;2022-11-02T11:25:18;1.80;;;1.23;;
966;SDS011;56108;48.730;9.304;2022-11-02T11:27:32;2.53;;;1.67;;
966;SDS011;56108;48.730;9.304;2022-11-02T11:29:53;3.15;;;1.90;;
966;SDS011;56108;48.730;9.304;2022-11-02T11:32:11;4.60;;;1.55;;
966;SDS011;56108;48.730;9.304;2022-11-02T11:34:33;6.00;;;1.80;;
966;SDS011;56108;48.730;9.304;2022-11-02T11:36:43;2.47;;;1.70;;
966;SDS011;56108;48.730;9.304;2022-11-02T11:38:52;4.07;;;1.77;;
966;SDS011;56108;48.730;9.304;2022-11-02T11:41:04;4.38;;;1.73;;
966;SDS011;56108;48.730;9.304;2022-11-02T11:43:13;2.17;;;1.25;;
966;SDS011;56108;48.730;9.304;2022-11-02T11:45:24;4.00;;;1.75;;
966;SDS011;56108;48.730;9.304;2022-11-02T11:47:37;2.83;;;1.40;;
966;SDS011;56108;48.730;9.304;2022-11-02T11:49:48;3.08;;;1.70;;
966;SDS011;56108;48.730;9.304;2022-11-02T11:52:18;3.05;;;1.95;;
966;SDS011;56108;48.730;9.304;2022-11-02T11:54:35;2.75;;;1.58;;
966;SDS011;56108;48.730;9.304;2022-11-02T11:56:45;3.75;;;1.92;;
966;SDS011;56108;48.730;9.304;2022-11-02T11:58:54;4.13;;;2.15;;
966;SDS011;56108;48.730;9.304;2022-11-02T12:01:04;2.42;;;1.95;;
966;SDS011;56108;48.730;9.304;2022-11-02T12:03:18;3.20;;;2.03;;
966;SDS011;56108;48.730;9.304;2022-11-02T12:05:27;2.03;;;1.58;;
966;SDS011;56108;48.730;9.304;2022-11-02T12:10:15;4.00;;;1.83;;
966;SDS011;56108;48.730;9.304;2022-11-02T12:12:32;4.20;;;1.80;;
966;SDS011;56108;48.730;9.304;2022-11-02T12:14:51;6.65;;;2.00;;
966;SDS011;56108;48.730;9.304;2022-11-02T12:17:16;3.10;;;2.03;;
966;SDS011;56108;48.730;9.304;2022-11-02T12:19:41;3.10;;;1.90;;
966;SDS011;56108;48.730;9.304;2022-11-02T12:22:04;5.22;;;1.77;;
966;SDS011;56108;48.730;9.304;2022-11-02T12:24:40;4.35;;;2.40;;
966;SDS011;56108;48.730;9.304;2022-11-02T12:27:14;6.78;;;2.03;;
966;SDS011;56108;48.730;9.304;2022-11-02T12:32:22;2.85;;;1.60;;
966;SDS011;56108;48.730;9.304;2022-11-02T12:34:58;3.63;;;1.83;;
966;SDS011;56108;48.730;9.304;2022-11-02T12:37:38;2.55;;;2.35;;
966;SDS011;56108;48.730;9.304;2022-11-02T12:40:00;3.35;;;1.65;;
966;SDS011;56108;48.730;9.304;2022-11-02T12:42:24;4.88;;;2.10;;
966;SDS011;56108;48.730;9.304;2022-11-02T12:44:41;4.32;;;1.80;;
966;SDS011;56108;48.730;9.304;2022-11-02T12:46:57;4.15;;;1.98;;
966;SDS011;56108;48.730;9.304;2022-11-02T12:49:18;3.25;;;1.83;;
966;SDS011;56108;48.730;9.304;2022-11-02T12:51:43;5.47;;;2.35;;
966;SDS011;56108;48.730;9.304;2022-11-02T12:53:57;5.38;;;1.80;;
966;SDS011;56108;48.730;9.304;2022-11-02T12:56:07;2.75;;;1.70;;
966;SDS011;56108;48.730;9.304;2022-11-02T12:58:20;1.77;;;1.50;;
966;SDS011;56108;48.730;9.304;2022-11-02T13:00:34;4.22;;;1.70;;
966;SDS011;56108;48.730;9.304;2022-11-02T13:02:50;3.22;;;2.10;;
966;SDS011;56108;48.730;9.304;2022-11-02T13:05:05;2.03;;;1.50;;
966;SDS011;56108;48.730;9.304;2022-11-02T13:07:23;2.55;;;1.50;;
966;SDS011;56108;48.730;9.304;2022-11-02T13:09:38;1.83;;;1.52;;
966;SDS011;56108;48.730;9.304;2022-11-02T13:12:01;3.78;;;1.60;;
966;SDS011;56108;48.730;9.304;2022-11-02T13:14:14;4.13;;;1.25;;
966;SDS011;56108;48.730;9.304;2022-11-02T13:16:29;3.67;;;1.65;;
966;SDS011;56108;48.730;9.304;2022-11-02T13:18:46;2.10;;;1.85;;
966;SDS011;56108;48.730;9.304;2022-11-02T13:20:57;2.15;;;1.70;;
966;SDS011;56108;48.730;9.304;2022-11-02T13:23:16;2.10;;;1.52;;
966;SDS011;56108;48.730;9.304;2022-11-02T13:25:33;2.97;;;1.70;;
966;SDS011;56108;48.730;9.304;2022-11-02T13:27:46;3.75;;;1.60;;
966;SDS011;56108;48.730;9.304;2022-11-02T13:30:00;2.95;;;2.10;;
966;SDS011;56108;48.730;9.304;2022-11-02T13:32:14;8.18;;;2.88;;
966;SDS011;56108;48.730;9.304;2022-11-02T13:34:34;5.50;;;1.83;;
966;SDS011;56108;48.730;9.304;2022-11-02T13:36:47;1.90;;;1.70;;
966;SDS011;56108;48.730;9.304;2022-11-02T13:38:59;3.35;;;1.63;;
966;SDS011;56108;48.730;9.304;2022-11-02T13:41:17;2.83;;;1.90;;
966;SDS011;56108;48.730;9.304;2022-11-02T13:43:41;2.58;;;1.70;;
966;SDS011;56108;48.730;9.304;2022-11-02T13:46:11;2.00;;;1.42;;
966;SDS011;56108;48.730;9.304;2022-11-02T13:48:46;2.10;;;1.88;;
966;SDS011;56108;48.730;9.304;2022-11-02T13:51:02;4.20;;;1.80;;
966;SDS011;56108;48.730;9.304;2022-11-02T13:53:16;2.42;;;1.30;;
966;SDS011;56108;48.730;9.304;2022-11-02T13:55:36;5.10;;;2.20;;
966;SDS011;56108;48.730;9.304;2022-11-02T13:57:51;2.80;;;1.83;;